Time;durP1;ratioP1;P1;durP2;ratioP2;P2;SDS_P1;SDS_P2;PMS_P1;PMS_P2;Temp;Humidity;BMP_temperature;BMP_pressure;BME280_temperature;BME280_humidity;BME280_pressure;Samples;Min_cycle;Max_cycle;Signal;HPM_P1;HPM_P2
2023/05/04 00:01:25;;;;;;;8.55;7.63;;;;;;;8.05;70.15;102441.31;6099441;23;20026;-81
2023/05/04 00:03:53;;;;;;;9.25;7.55;;;;;;;8.02;70.54;102434.13;6099668;23;20019;-81
2023/05/04 00:06:20;;;;;;;10.23;7.50;;;;;;;7.99;70.62;102435.66;6074166;23;20425;-81
2023/05/04 00:08:46;;;;;;;11.88;7.43;;;;;;;7.97;70.66;102431.88;6100290;23;20018;-81
2023/05/04 00:11:13;;;;;;;9.57;7.43;;;;;;;7.94;70.94;102430.75;6073890;23;20035;-81
2023/05/04 00:13:39;;;;;;;8.88;7.70;;;;;;;7.93;71.11;102425.81;6100080;23;20425;-80
2023/05/04 00:16:06;;;;;;;9.18;7.45;;;;;;;7.90;71.17;102427.31;6073920;23;20099;-81
2023/05/04 00:18:35;;;;;;;10.43;7.50;;;;;;;7.88;70.83;102434.91;6073307;23;20026;-81
2023/05/04 00:21:02;;;;;;;10.40;7.97;;;;;;;7.86;71.39;102423.91;6073786;23;20046;-81
2023/05/04 00:23:28;;;;;;;11.98;8.05;;;;;;;7.84;71.85;102415.59;6098201;23;20456;-81
2023/05/04 00:25:57;;;;;;;11.50;8.35;;;;;;;7.81;71.69;102416.34;6100011;23;20022;-81
2023/05/04 00:28:24;;;;;;;8.38;7.53;;;;;;;7.79;71.83;102407.25;6099997;23;20023;-81
2023/05/04 00:30:54;;;;;;;13.82;8.23;;;;;;;7.77;71.66;102412.94;6074595;23;20025;-81
2023/05/04 00:33:21;;;;;;;9.68;8.23;;;;;;;7.75;72.10;102409.13;6098804;23;20025;-81
2023/05/04 00:35:48;;;;;;;8.93;8.02;;;;;;;7.73;72.14;102411.41;6100076;23;20445;-81
2023/05/04 00:38:15;;;;;;;8.77;7.85;;;;;;;7.70;72.26;102397.00;6073807;23;20053;-81
2023/05/04 00:40:42;;;;;;;11.30;8.10;;;;;;;7.69;72.53;102398.16;6100237;23;20085;-81
2023/05/04 00:43:10;;;;;;;12.20;7.60;;;;;;;7.67;72.35;102395.13;6099308;23;20021;-81
2023/05/04 00:45:37;;;;;;;13.52;7.93;;;;;;;7.63;72.74;102395.13;6099860;23;20019;-81
2023/05/04 00:48:05;;;;;;;8.80;7.85;;;;;;;7.62;72.49;102390.19;6098851;23;20015;-81
2023/05/04 00:50:31;;;;;;;9.18;7.63;;;;;;;7.60;72.90;102389.81;6099926;23;20023;-80
2023/05/04 00:53:03;;;;;;;8.98;7.57;;;;;;;7.58;72.86;102386.81;6073766;23;20022;-80
2023/05/04 00:55:31;;;;;;;9.75;7.15;;;;;;;7.55;72.90;102384.91;6074671;23;20026;-80
2023/05/04 00:57:57;;;;;;;10.77;6.95;;;;;;;7.53;73.17;102385.28;6099037;23;20094;-81
2023/05/04 01:00:24;;;;;;;10.13;7.68;;;;;;;7.52;73.22;102389.06;6073786;23;20403;-81
2023/05/04 01:02:51;;;;;;;8.52;7.07;;;;;;;7.50;73.02;102386.03;6044517;23;20047;-80
2023/05/04 01:05:17;;;;;;;14.35;7.03;;;;;;;7.49;73.40;102386.41;6044352;23;20020;-80
2023/05/04 01:07:53;;;;;;;10.18;7.75;;;;;;;7.47;73.20;102383.38;6069101;23;20032;-80
2023/05/04 01:10:28;;;;;;;7.88;7.13;;;;;;;7.44;73.46;102374.31;6068479;23;20023;-80
2023/05/04 01:13:00;;;;;;;8.70;6.88;;;;;;;7.42;73.40;102367.88;6070918;23;20019;-80
2023/05/04 01:15:27;;;;;;;;;;;;;;;7.42;72.49;102373.16;6071631;23;20027;-80
2023/05/04 01:17:54;;;;;;;8.32;6.47;;;;;;;7.39;73.43;102372.03;6071848;23;19921;-80
2023/05/04 01:20:21;;;;;;;12.77;7.22;;;;;;;7.38;73.79;102367.88;6070213;23;20084;-81
2023/05/04 01:22:47;;;;;;;9.32;6.47;;;;;;;7.35;73.91;102374.66;6070335;23;20102;-80
2023/05/04 01:25:15;;;;;;;9.93;6.60;;;;;;;7.32;73.88;102364.81;6071465;23;20015;-80
2023/05/04 01:28:05;;;;;;;14.52;7.55;;;;;;;7.31;74.04;102365.19;6072124;23;20015;-80
2023/05/04 01:30:39;;;;;;;10.07;6.75;;;;;;;7.29;74.01;102368.22;6070110;23;20028;-81
2023/05/04 01:33:07;;;;;;;7.75;6.25;;;;;;;7.28;73.98;102366.72;6069306;23;20019;-81
2023/05/04 01:35:36;;;;;;;9.15;6.88;;;;;;;7.26;74.24;102362.91;6046552;23;20064;-81
2023/05/04 01:38:03;;;;;;;7.55;6.80;;;;;;;7.25;74.38;102364.81;6069754;23;20022;-81
2023/05/04 01:40:29;;;;;;;9.48;6.53;;;;;;;7.23;74.64;102355.72;6070419;23;20019;-80
2023/05/04 01:42:56;;;;;;;5.93;5.40;;;;;;;7.21;74.43;102363.28;6069958;23;20024;-81
2023/05/04 01:45:22;;;;;;;7.13;6.10;;;;;;;7.19;74.44;102366.34;6071041;23;20016;-80
2023/05/04 01:47:49;;;;;;;9.48;6.35;;;;;;;7.19;74.40;102370.88;6071584;23;20398;-81
2023/05/04 01:50:16;;;;;;;7.97;6.53;;;;;;;7.17;74.57;102363.31;6069341;23;20027;-80
2023/05/04 01:52:43;;;;;;;7.20;6.50;;;;;;;7.16;74.75;102369.75;6071791;23;20016;-80
2023/05/04 01:55:09;;;;;;;7.18;6.47;;;;;;;7.16;74.58;102358.38;6071346;23;20119;-80
2023/05/04 01:57:36;;;;;;;6.90;6.30;;;;;;;7.14;74.56;102361.41;6071940;23;20027;-80
2023/05/04 02:00:03;;;;;;;7.38;6.45;;;;;;;7.12;74.90;102360.28;6069383;23;20028;-80
2023/05/04 02:02:41;;;;;;;6.88;6.20;;;;;;;7.11;74.84;102362.16;6094326;23;20033;-80
2023/05/04 02:05:08;;;;;;;6.60;5.93;;;;;;;7.10;74.74;102351.94;6074124;23;20029;-80
2023/05/04 02:07:34;;;;;;;8.52;6.57;;;;;;;7.08;75.07;102347.03;6100694;23;20087;-81
2023/05/04 02:10:01;;;;;;;7.65;6.40;;;;;;;7.06;75.21;102343.22;6074365;23;20027;-80
2023/05/04 02:12:28;;;;;;;6.93;6.20;;;;;;;7.05;75.20;102347.00;6074147;23;20019;-80
2023/05/04 02:14:55;;;;;;;7.65;6.30;;;;;;;7.04;75.02;102346.25;6074207;23;20019;-80
2023/05/04 02:17:21;;;;;;;10.98;6.53;;;;;;;7.00;75.39;102338.31;6074477;23;20480;-80
2023/05/04 02:19:48;;;;;;;11.10;6.35;;;;;;;6.99;75.62;102334.13;6074907;23;20026;-80
2023/05/04 02:22:15;;;;;;;8.43;6.35;;;;;;;6.97;75.53;102333.00;6073898;23;20019;-80
2023/05/04 02:24:43;;;;;;;7.47;6.18;;;;;;;6.95;75.56;102340.56;6074912;23;20520;-80
2023/05/04 02:27:09;;;;;;;7.43;6.40;;;;;;;6.93;75.64;102334.88;6073487;23;20019;-80
2023/05/04 02:29:37;;;;;;;9.30;6.45;;;;;;;6.91;75.53;102335.25;6074164;23;20030;-80
2023/05/04 02:32:03;;;;;;;7.95;6.40;;;;;;;6.89;75.92;102334.09;6074229;23;20086;-80
2023/05/04 02:34:30;;;;;;;10.18;6.95;;;;;;;6.88;75.87;102327.28;6051044;23;20438;-80
2023/05/04 02:36:57;;;;;;;9.35;6.43;;;;;;;6.87;75.95;102323.13;6100144;23;20018;-80
2023/05/04 02:39:23;;;;;;;7.00;6.15;;;;;;;6.85;75.77;102325.41;6074583;23;20083;-80
2023/05/04 02:41:49;;;;;;;10.55;6.55;;;;;;;6.81;76.03;102320.09;6074766;23;20097;-79
2023/05/04 02:44:18;;;;;;;9.43;6.63;;;;;;;6.79;75.95;102325.03;6099131;23;20445;-80
2023/05/04 02:46:45;;;;;;;7.35;6.07;;;;;;;6.77;76.07;102319.34;6050492;23;20364;-80
2023/05/04 02:49:11;;;;;;;7.47;6.10;;;;;;;6.74;76.34;102314.81;6099850;23;20079;-80
2023/05/04 02:51:38;;;;;;;8.10;6.00;;;;;;;6.72;76.28;102309.13;6100546;23;20015;-80
2023/05/04 02:54:05;;;;;;;7.93;6.10;;;;;;;6.67;76.46;102315.53;6099803;23;20015;-80
2023/05/04 02:56:32;;;;;;;8.55;6.50;;;;;;;6.66;76.64;102302.69;6074570;23;20023;-80
2023/05/04 02:58:58;;;;;;;7.55;6.15;;;;;;;6.65;76.85;102306.47;6099791;23;20513;-80
2023/05/04 03:01:25;;;;;;;9.73;6.40;;;;;;;6.62;76.88;102312.50;6069134;23;20027;-80
2023/05/04 03:03:51;;;;;;;7.60;6.45;;;;;;;6.58;76.95;102315.13;6071579;23;20016;-80
2023/05/04 03:06:18;;;;;;;8.73;6.45;;;;;;;6.56;77.10;102312.09;6068991;23;20019;-80
2023/05/04 03:08:44;;;;;;;6.72;6.03;;;;;;;6.53;77.25;102312.84;6070125;23;20060;-81
2023/05/04 03:11:11;;;;;;;7.95;6.47;;;;;;;6.52;77.12;102315.84;6069018;23;20019;-80
2023/05/04 03:13:37;;;;;;;10.18;6.00;;;;;;;6.52;77.39;102319.25;6071016;23;20075;-80
2023/05/04 03:16:04;;;;;;;6.93;5.97;;;;;;;6.48;77.01;102309.78;6045378;23;20043;-80
2023/05/04 03:18:31;;;;;;;11.77;6.88;;;;;;;6.47;77.54;102309.03;6070197;23;20173;-80
2023/05/04 03:21:01;;;;;;;7.15;6.47;;;;;;;6.45;77.60;102308.66;6069272;23;20015;-80
2023/05/04 03:23:28;;;;;;;6.30;5.70;;;;;;;6.44;77.86;102304.50;6045607;23;20446;-80
2023/05/04 03:25:55;;;;;;;7.75;6.10;;;;;;;6.41;77.84;102301.81;6071341;23;20446;-80
2023/05/04 03:28:22;;;;;;;9.27;6.45;;;;;;;6.38;77.79;102298.06;6068664;23;20377;-80
2023/05/04 03:30:48;;;;;;;8.15;6.32;;;;;;;6.37;78.10;102288.59;6046044;23;20490;-80
2023/05/04 03:33:17;;;;;;;6.68;6.05;;;;;;;6.34;77.90;102294.66;6068865;23;20019;-80
2023/05/04 03:35:44;;;;;;;10.23;6.32;;;;;;;6.31;78.23;102288.22;6045754;23;20076;-80
2023/05/04 03:38:10;;;;;;;9.70;6.60;;;;;;;6.29;78.19;102285.19;6068478;23;20458;-81
2023/05/04 03:40:37;;;;;;;9.15;6.10;;;;;;;6.30;78.08;102285.94;6046308;23;20025;-80
2023/05/04 03:43:04;;;;;;;7.90;5.75;;;;;;;6.28;78.24;102290.84;6069218;23;20025;-80
2023/05/04 03:45:30;;;;;;;7.85;6.50;;;;;;;6.26;78.43;102285.91;6070079;23;20019;-80
2023/05/04 03:47:57;;;;;;;8.07;6.55;;;;;;;6.25;78.67;102284.41;6069892;23;20087;-80
2023/05/04 03:50:25;;;;;;;7.05;6.32;;;;;;;6.23;78.79;102281.38;6069382;23;20023;-80
2023/05/04 03:52:51;;;;;;;8.50;6.20;;;;;;;6.22;78.64;102274.56;6069932;23;20478;-80
2023/05/04 03:55:20;;;;;;;16.55;6.75;;;;;;;6.20;78.61;102274.19;6045680;23;20081;-81
2023/05/04 03:57:48;;;;;;;9.00;6.60;;;;;;;6.19;78.96;102271.91;6069043;23;20027;-80
2023/05/04 04:00:16;;;;;;;10.88;7.55;;;;;;;6.18;79.06;102281.72;6068889;23;20395;-80
2023/05/04 04:02:49;;;;;;;10.80;6.70;;;;;;;6.17;79.04;102276.81;6069422;23;20059;-80
2023/05/04 04:05:18;;;;;;;12.20;6.68;;;;;;;6.15;79.01;102271.88;6045648;23;20433;-80
2023/05/04 04:07:46;;;;;;;7.38;6.38;;;;;;;6.13;79.03;102265.44;6069481;23;20461;-80
2023/05/04 04:10:13;;;;;;;9.75;6.43;;;;;;;6.12;78.93;102272.63;6069165;23;20023;-80
2023/05/04 04:12:40;;;;;;;11.73;6.78;;;;;;;6.12;79.28;102274.50;6070486;23;20019;-81
2023/05/04 04:15:07;;;;;;;7.53;6.45;;;;;;;6.12;79.18;102277.91;6070371;23;20084;-81
2023/05/04 04:17:33;;;;;;;7.35;6.65;;;;;;;6.12;79.38;102269.97;6045830;23;20564;-81
2023/05/04 04:20:00;;;;;;;7.28;6.60;;;;;;;6.12;79.46;102269.97;6069384;23;20087;-81
2023/05/04 04:22:26;;;;;;;10.02;6.95;;;;;;;6.14;79.18;102264.31;6071386;23;20504;-81
2023/05/04 04:24:53;;;;;;;9.32;6.80;;;;;;;6.17;79.49;102271.50;6069467;23;20015;-81
2023/05/04 04:27:19;;;;;;;9.73;6.63;;;;;;;6.16;78.96;102273.41;6068695;23;20023;-81
2023/05/04 04:29:46;;;;;;;7.97;6.00;;;;;;;6.17;79.21;102266.22;6069628;23;20051;-81
2023/05/04 04:32:13;;;;;;;9.20;7.05;;;;;;;6.19;79.35;102271.91;6070435;23;20016;-81
2023/05/04 04:34:40;;;;;;;9.35;7.07;;;;;;;6.21;79.28;102265.13;6071413;23;20020;-81
2023/05/04 04:37:06;;;;;;;9.38;6.68;;;;;;;6.26;79.11;102267.41;6068790;23;20027;-81
2023/05/04 04:39:32;;;;;;;7.88;6.55;;;;;;;6.29;79.21;102273.84;6070748;23;20047;-81
2023/05/04 04:42:00;;;;;;;7.32;6.60;;;;;;;6.32;79.20;102265.16;6069052;23;20026;-81
2023/05/04 04:44:27;;;;;;;8.23;6.88;;;;;;;6.34;78.73;102273.47;6069091;23;20447;-81
2023/05/04 04:46:53;;;;;;;8.98;6.70;;;;;;;6.38;78.78;102262.91;6069514;23;20138;-80
2023/05/04 04:49:20;;;;;;;7.65;6.88;;;;;;;6.41;78.85;102260.25;6044831;23;20419;-81
2023/05/04 04:51:47;;;;;;;9.43;7.15;;;;;;;6.47;78.73;102258.00;6071262;23;20047;-80
2023/05/04 04:54:14;;;;;;;10.75;6.70;;;;;;;6.52;78.51;102260.28;6069950;23;20020;-81
2023/05/04 04:56:41;;;;;;;9.75;7.28;;;;;;;6.57;78.51;102262.56;6071023;23;20024;-81
2023/05/04 04:59:09;;;;;;;12.15;6.97;;;;;;;6.62;78.05;102264.88;6068552;23;20023;-81
2023/05/04 05:01:36;;;;;;;10.68;6.95;;;;;;;6.65;78.19;102264.88;6080152;23;20041;-81
2023/05/04 05:04:03;;;;;;;7.15;5.95;;;;;;;6.75;77.86;102258.09;6074087;23;20015;-80
2023/05/04 05:06:29;;;;;;;13.85;7.13;;;;;;;6.81;77.34;102259.22;6050201;23;20045;-80
2023/05/04 05:08:56;;;;;;;13.45;7.93;;;;;;;6.96;77.15;102257.34;6099200;23;20019;-81
2023/05/04 05:11:23;;;;;;;7.97;7.18;;;;;;;7.35;76.29;102262.63;6073721;23;20026;-80
2023/05/04 05:13:49;;;;;;;12.68;7.55;;;;;;;7.67;75.13;102254.63;6050061;23;20037;-80
2023/05/04 05:16:16;;;;;;;10.70;6.95;;;;;;;7.93;74.22;102254.19;6073274;23;20082;-80
2023/05/04 05:18:42;;;;;;;12.48;7.20;;;;;;;8.21;72.87;102250.69;6050372;23;20386;-80
2023/05/04 05:21:10;;;;;;;8.57;6.85;;;;;;;8.49;71.37;102252.44;6099116;23;20025;-81
2023/05/04 05:23:36;;;;;;;7.65;6.85;;;;;;;8.62;70.22;102252.75;6073519;23;20015;-80
2023/05/04 05:26:03;;;;;;;10.10;6.22;;;;;;;8.68;69.84;102251.97;6099980;23;20034;-80
2023/05/04 05:28:29;;;;;;;11.00;7.43;;;;;;;9.14;69.42;102258.09;6049855;23;20413;-80
2023/05/04 05:30:56;;;;;;;7.70;6.95;;;;;;;9.54;67.39;102249.34;6073993;23;20015;-80
2023/05/04 05:33:23;;;;;;;9.82;7.55;;;;;;;9.59;67.08;102254.25;6073474;23;20331;-80
2023/05/04 05:35:49;;;;;;;10.88;7.50;;;;;;;9.51;66.87;102252.81;6099781;23;20029;-80
2023/05/04 05:38:16;;;;;;;10.80;7.07;;;;;;;9.61;66.38;102248.50;6098659;23;20023;-81
2023/05/04 05:40:43;;;;;;;7.38;6.75;;;;;;;9.59;65.98;102246.28;6073902;23;20430;-81
2023/05/04 05:43:09;;;;;;;10.95;7.68;;;;;;;9.74;66.19;102246.09;6099079;23;20018;-80
2023/05/04 05:45:36;;;;;;;10.23;7.70;;;;;;;10.00;65.49;102245.41;6099699;23;20026;-81
2023/05/04 05:48:03;;;;;;;10.45;7.72;;;;;;;9.98;65.16;102242.41;6099062;23;20452;-81
2023/05/04 05:50:29;;;;;;;8.38;7.25;;;;;;;9.96;65.23;102242.81;6100261;23;20022;-81
2023/05/04 05:52:56;;;;;;;14.18;7.40;;;;;;;10.13;64.62;102243.75;6098408;23;20446;-81
2023/05/04 05:55:22;;;;;;;10.30;7.15;;;;;;;10.29;64.38;102243.19;6073619;23;20023;-80
2023/05/04 05:57:49;;;;;;;10.88;7.90;;;;;;;10.09;64.33;102243.03;6073942;23;20019;-81
2023/05/04 06:00:16;;;;;;;9.32;7.55;;;;;;;10.03;64.86;102236.63;6098891;23;20019;-80
2023/05/04 06:02:43;;;;;;;9.65;7.13;;;;;;;9.99;65.06;102235.94;6100319;23;20030;-80
2023/05/04 06:05:10;;;;;;;9.10;7.03;;;;;;;10.08;64.99;102233.53;6100359;23;20026;-79
2023/05/04 06:07:36;;;;;;;10.25;7.45;;;;;;;10.21;64.65;102229.22;6075373;23;20030;-81
2023/05/04 06:10:04;;;;;;;12.93;7.50;;;;;;;10.52;64.33;102229.16;6076366;23;20349;-82
2023/05/04 06:12:31;;;;;;;11.65;7.95;;;;;;;11.18;62.60;102229.28;6075654;23;20015;-82
2023/05/04 06:14:57;;;;;;;10.27;7.80;;;;;;;11.38;61.47;102226.63;6100238;23;20023;-83
2023/05/04 06:17:24;;;;;;;8.00;7.18;;;;;;;11.62;61.53;102229.97;6075112;23;20019;-83
2023/05/04 06:19:50;;;;;;;9.10;7.82;;;;;;;11.53;60.94;102229.78;6100860;23;20022;-84
2023/05/04 06:22:17;;;;;;;8.80;7.63;;;;;;;11.25;61.39;102223.81;6101084;23;20015;-85
2023/05/04 06:24:43;;;;;;;8.40;7.60;;;;;;;11.12;61.32;102227.47;6077007;23;20030;-83
2023/05/04 06:27:10;;;;;;;10.57;8.13;;;;;;;10.99;62.11;102224.63;6102772;23;20015;-78
2023/05/04 06:29:38;;;;;;;10.23;8.27;;;;;;;10.93;62.30;102218.25;6077846;23;20083;-80
2023/05/04 06:32:05;;;;;;;9.77;7.43;;;;;;;10.97;62.27;102219.72;6076618;23;20019;-82
2023/05/04 06:34:32;;;;;;;8.35;7.55;;;;;;;11.00;62.14;102215.50;6101624;23;20019;-79
2023/05/04 06:36:59;;;;;;;14.00;8.15;;;;;;;11.01;62.08;102217.75;6100714;23;20019;-80
2023/05/04 06:39:25;;;;;;;9.15;7.57;;;;;;;11.05;62.49;102216.94;6101580;23;20026;-79
2023/05/04 06:41:54;;;;;;;10.10;7.88;;;;;;;11.12;61.93;102214.16;6101438;23;20018;-82
2023/05/04 06:44:21;;;;;;;10.93;7.95;;;;;;;11.09;62.01;102214.97;6101607;23;20341;-82
2023/05/04 06:46:47;;;;;;;8.32;7.53;;;;;;;11.13;62.21;102210.34;6101814;23;20015;-83
2023/05/04 06:49:16;;;;;;;10.30;7.63;;;;;;;11.24;62.33;102208.22;6101245;23;20030;-82
2023/05/04 06:51:43;;;;;;;7.90;7.10;;;;;;;11.42;61.55;102203.31;6075585;23;20050;-83
2023/05/04 06:54:10;;;;;;;7.82;7.10;;;;;;;11.53;61.90;102208.47;6076044;23;20075;-82
2023/05/04 06:56:38;;;;;;;8.98;7.68;;;;;;;11.70;61.03;102207.34;6101769;23;20019;-81
2023/05/04 06:59:05;;;;;;;11.63;7.85;;;;;;;11.71;60.90;102200.84;6101112;23;20019;-81
2023/05/04 07:01:31;;;;;;;9.93;7.75;;;;;;;11.79;60.59;102204.16;6070554;23;20484;-81
2023/05/04 07:03:58;;;;;;;8.85;7.93;;;;;;;11.87;60.49;102200.19;6071290;23;20023;-84
2023/05/04 07:06:28;;;;;;;8.57;7.43;;;;;;;11.96;60.34;102195.81;6073059;23;20107;-80
2023/05/04 07:08:55;;;;;;;10.20;7.43;;;;;;;12.07;60.37;102194.81;6071861;23;20024;-84
2023/05/04 07:11:22;;;;;;;8.57;7.70;;;;;;;12.20;60.18;102193.00;6073404;23;20525;-85
2023/05/04 07:13:49;;;;;;;12.52;6.97;;;;;;;12.13;59.20;102191.22;6099113;23;20103;-84
2023/05/04 07:16:15;;;;;;;8.23;7.43;;;;;;;12.27;59.53;102188.25;6072872;23;20020;-84
2023/05/04 07:18:42;;;;;;;8.82;7.30;;;;;;;12.46;59.04;102175.25;6074631;23;20098;-84
2023/05/04 07:21:10;;;;;;;13.38;7.97;;;;;;;12.77;59.27;102184.44;6070026;23;20027;-84
2023/05/04 07:23:42;;;;;;;7.85;7.18;;;;;;;13.09;57.88;102172.16;6072991;23;20019;-84
2023/05/04 07:26:08;;;;;;;8.18;7.32;;;;;;;13.28;57.23;102177.38;6073001;23;20794;-87
2023/05/04 07:28:35;;;;;;;13.07;7.45;;;;;;;13.62;56.32;102171.47;6071714;23;20031;-84
2023/05/04 07:31:01;;;;;;;11.68;7.55;;;;;;;13.77;55.45;102171.84;6072464;23;20023;-85
2023/05/04 07:33:28;;;;;;;10.35;7.43;;;;;;;13.92;55.51;102172.16;6072312;23;20023;-84
2023/05/04 07:35:58;;;;;;;8.02;7.13;;;;;;;14.01;54.66;102169.59;6073012;23;20082;-84
2023/05/04 07:38:26;;;;;;;9.57;7.50;;;;;;;14.08;54.54;102169.38;6047701;23;20457;-85
2023/05/04 07:40:53;;;;;;;8.02;7.22;;;;;;;14.14;54.38;102162.31;6071451;23;20038;-87
2023/05/04 07:43:20;;;;;;;11.20;7.57;;;;;;;14.30;53.65;102172.91;6072576;23;20024;-86
2023/05/04 07:45:47;;;;;;;14.18;7.63;;;;;;;14.48;53.85;102166.25;6073625;23;20026;-86
2023/05/04 07:48:13;;;;;;;7.88;7.20;;;;;;;14.55;53.49;102163.34;6047052;23;20047;-86
2023/05/04 07:50:41;;;;;;;8.02;7.30;;;;;;;14.77;53.30;102172.22;6072456;23;20023;-86
2023/05/04 07:53:08;;;;;;;8.20;7.20;;;;;;;14.94;52.87;102162.06;6072279;23;20008;-81
2023/05/04 07:55:35;;;;;;;10.88;6.93;;;;;;;15.14;52.06;102167.13;6072824;23;20019;-81
2023/05/04 07:58:02;;;;;;;11.18;7.15;;;;;;;15.18;51.50;102165.81;6072148;23;20416;-83
2023/05/04 08:00:28;;;;;;;9.25;7.13;;;;;;;15.18;51.68;102159.72;6072247;23;20501;-83
2023/05/04 08:02:55;;;;;;;8.68;7.60;;;;;;;15.32;51.37;102156.50;6096710;23;20451;-83
2023/05/04 08:05:22;;;;;;;8.02;6.82;;;;;;;15.58;51.25;102155.22;6051589;23;20563;-83
2023/05/04 08:07:49;;;;;;;8.90;6.88;;;;;;;15.86;50.30;102147.28;6076131;23;20443;-83
2023/05/04 08:10:16;;;;;;;13.57;7.20;;;;;;;16.06;49.99;102144.94;6101096;23;20015;-83
2023/05/04 08:12:42;;;;;;;7.75;6.88;;;;;;;15.94;48.95;102145.81;6075116;23;20361;-82
2023/05/04 08:15:09;;;;;;;7.53;6.63;;;;;;;15.78;49.51;102146.78;6101248;23;20023;-84
2023/05/04 08:17:38;;;;;;;9.98;7.88;;;;;;;15.87;48.96;102149.50;6074914;23;20070;-83
2023/05/04 08:20:08;;;;;;;10.43;6.93;;;;;;;15.86;49.38;102142.66;6074804;23;20050;-83
2023/05/04 08:22:35;;;;;;;10.20;6.65;;;;;;;15.92;49.41;102132.09;6075844;23;20019;-83
2023/05/04 08:25:02;;;;;;;7.93;7.18;;;;;;;15.98;49.77;102133.00;6074600;23;20374;-81
2023/05/04 08:27:29;;;;;;;9.23;6.70;;;;;;;16.21;49.30;102140.50;6101333;23;20019;-79
2023/05/04 08:29:56;;;;;;;11.52;6.88;;;;;;;16.28;48.92;102123.38;6075678;23;20014;-78
2023/05/04 08:32:23;;;;;;;7.70;6.88;;;;;;;16.38;48.08;102122.19;6100233;23;20429;-78
2023/05/04 08:34:50;;;;;;;10.65;6.95;;;;;;;16.55;48.34;102119.94;6076954;23;20030;-81
2023/05/04 08:37:17;;;;;;;10.68;6.88;;;;;;;16.53;47.75;102109.63;6074926;23;20449;-80
2023/05/04 08:39:43;;;;;;;9.15;7.40;;;;;;;16.48;48.01;102112.91;6101883;23;20054;-83
2023/05/04 08:42:10;;;;;;;8.13;6.78;;;;;;;16.63;47.51;102099.66;6075552;23;20019;-80
2023/05/04 08:44:37;;;;;;;8.15;6.80;;;;;;;16.84;47.72;102098.00;6075346;23;20023;-79
2023/05/04 08:47:03;;;;;;;7.60;6.90;;;;;;;17.05;48.38;102102.47;6074408;23;20023;-81
2023/05/04 08:49:30;;;;;;;9.25;6.60;;;;;;;17.18;47.89;102105.00;6075473;23;20030;-81
2023/05/04 08:51:58;;;;;;;6.63;6.00;;;;;;;17.36;47.01;102096.84;6075253;23;20023;-80
2023/05/04 08:54:26;;;;;;;8.52;6.60;;;;;;;17.51;46.20;102086.94;6101012;23;20019;-80
2023/05/04 08:56:53;;;;;;;9.25;6.50;;;;;;;17.67;45.47;102085.84;6100879;23;20043;-80
2023/05/04 08:59:22;;;;;;;7.25;6.53;;;;;;;17.75;46.12;102084.31;6074417;23;20057;-80
2023/05/04 09:01:57;;;;;;;7.60;6.90;;;;;;;17.88;45.57;102086.78;6069311;23;20071;-83
2023/05/04 09:04:25;;;;;;;9.18;6.38;;;;;;;17.95;45.80;102086.44;6072268;23;20462;-82
2023/05/04 09:06:55;;;;;;;7.03;6.35;;;;;;;17.95;44.55;102081.81;6073647;23;20022;-80
2023/05/04 09:09:26;;;;;;;8.07;6.68;;;;;;;18.15;44.41;102081.22;6071083;23;20034;-81
2023/05/04 09:11:53;;;;;;;8.23;6.63;;;;;;;18.24;45.14;102083.09;6072057;23;20485;-81
2023/05/04 09:14:21;;;;;;;7.30;6.03;;;;;;;18.41;44.14;102076.06;6071118;23;20020;-79
2023/05/04 09:16:48;;;;;;;7.45;6.70;;;;;;;18.75;43.73;102065.94;6071038;23;20035;-81
2023/05/04 09:19:19;;;;;;;9.70;6.25;;;;;;;18.87;43.58;102070.31;6070324;23;20451;-81
2023/05/04 09:21:46;;;;;;;12.88;6.68;;;;;;;18.83;44.01;102067.78;6072604;23;20024;-80
2023/05/04 09:24:24;;;;;;;6.30;5.70;;;;;;;18.90;44.14;102058.59;6071338;23;20442;-80
2023/05/04 09:26:51;;;;;;;8.68;6.50;;;;;;;18.78;42.80;102054.97;6071829;23;20417;-80
2023/05/04 09:29:17;;;;;;;7.03;6.32;;;;;;;18.98;43.22;102052.34;6071028;23;20067;-80
2023/05/04 09:31:49;;;;;;;6.45;5.88;;;;;;;19.29;43.00;102059.94;6070681;23;20019;-79
2023/05/04 09:34:19;;;;;;;10.63;6.22;;;;;;;19.27;42.57;102056.97;6069233;23;20032;-79
2023/05/04 09:36:57;;;;;;;10.43;6.25;;;;;;;19.40;42.51;102062.06;6073503;23;20015;-80
2023/05/04 09:39:24;;;;;;;8.05;6.20;;;;;;;19.46;41.36;102054.78;6050666;23;20026;-80
2023/05/04 09:41:50;;;;;;;7.38;6.43;;;;;;;19.68;42.61;102059.03;6073865;23;20458;-80
2023/05/04 09:44:20;;;;;;;6.70;6.10;;;;;;;19.92;41.82;102054.94;6074441;23;20022;-80
2023/05/04 09:46:54;;;;;;;7.85;5.30;;;;;;;20.18;41.67;102046.88;6073097;23;20438;-80
2023/05/04 09:49:31;;;;;;;6.95;5.22;;;;;;;20.46;39.65;102047.19;6071167;23;20457;-80
2023/05/04 09:52:01;;;;;;;8.73;5.53;;;;;;;20.57;39.24;102041.16;6073249;23;20458;-80
2023/05/04 09:54:33;;;;;;;26.30;7.80;;;;;;;20.76;40.18;102044.28;6073807;23;20480;-82
2023/05/04 09:57:13;;;;;;;26.02;7.18;;;;;;;20.80;39.07;102031.25;6077186;23;20090;-82
2023/05/04 09:59:40;;;;;;;11.77;5.40;;;;;;;20.79;38.57;102033.25;6075677;23;20016;-83
2023/05/04 10:02:08;;;;;;;5.95;5.32;;;;;;;20.92;38.22;102032.84;6052032;23;20016;-81
2023/05/04 10:04:50;;;;;;;10.13;5.13;;;;;;;21.01;38.56;102026.50;6078813;23;20022;-84
2023/05/04 10:07:18;;;;;;;6.07;5.05;;;;;;;21.09;38.08;102019.44;6075547;23;20075;-82
2023/05/04 10:09:47;;;;;;;6.40;5.70;;;;;;;21.27;37.72;102014.41;6075828;23;20377;-83
2023/05/04 10:12:13;;;;;;;13.75;6.18;;;;;;;21.33;37.37;102003.59;6050581;23;20072;-80
2023/05/04 10:14:41;;;;;;;9.00;5.30;;;;;;;21.42;38.31;102002.66;6073745;23;20038;-81
2023/05/04 10:17:50;;;;;;;6.10;5.47;;;;;;;21.65;37.92;102001.53;6077318;23;20035;-79
2023/05/04 10:20:56;;;;;;;8.60;5.35;;;;;;;21.44;37.45;102000.22;6045422;23;20086;-79
2023/05/04 10:23:41;;;;;;;10.57;5.55;;;;;;;21.68;37.13;101994.41;6071263;23;20027;-83
2023/05/04 10:26:08;;;;;;;8.43;4.70;;;;;;;21.78;36.57;101990.25;6073215;23;20026;-82
2023/05/04 10:28:53;;;;;;;5.47;5.00;;;;;;;21.81;36.29;101983.84;6070223;23;20059;-80
2023/05/04 10:31:20;;;;;;;5.75;4.70;;;;;;;22.07;36.42;101991.84;6074976;23;20509;-81
2023/05/04 10:33:47;;;;;;;6.72;4.70;;;;;;;22.35;35.32;101984.50;6078121;23;20015;-81
2023/05/04 10:36:13;;;;;;;7.30;5.15;;;;;;;22.23;35.47;101975.59;6078708;23;20053;-85
2023/05/04 10:38:40;;;;;;;6.82;5.10;;;;;;;22.18;35.66;101968.19;6075302;23;20071;-83
2023/05/04 10:41:18;;;;;;;7.28;4.90;;;;;;;22.29;35.59;101968.22;6073366;23;20102;-82
2023/05/04 10:43:51;;;;;;;8.70;5.18;;;;;;;22.36;35.78;101967.00;6074164;23;20020;-81
2023/05/04 10:46:19;;;;;;;5.72;5.07;;;;;;;22.37;35.03;101956.88;6072510;23;20427;-81
2023/05/04 10:48:46;;;;;;;7.95;5.18;;;;;;;22.53;34.86;101953.41;6072864;23;20023;-80
2023/05/04 10:51:23;;;;;;;4.22;3.70;;;;;;;22.67;34.41;101949.72;6072209;23;20489;-82
2023/05/04 10:54:02;;;;;;;7.35;4.53;;;;;;;22.63;32.63;101949.22;6079472;23;20024;-87
2023/05/04 10:56:28;;;;;;;5.30;3.95;;;;;;;22.66;31.97;101942.06;6073643;23;20020;-81
2023/05/04 10:58:55;;;;;;;4.88;4.20;;;;;;;22.74;32.57;101935.66;6074243;23;20072;-84
2023/05/04 11:01:22;;;;;;;10.35;4.32;;;;;;;22.93;32.53;101931.19;6081780;23;20042;-83
2023/05/04 11:03:50;;;;;;;4.72;4.05;;;;;;;22.98;32.36;101926.25;6076595;23;20023;-82
2023/05/04 11:06:22;;;;;;;16.48;4.50;;;;;;;23.09;31.93;101926.94;6101333;23;20021;-81
2023/05/04 11:09:01;;;;;;;5.70;4.45;;;;;;;23.16;32.72;101920.28;6102275;23;20079;-83
2023/05/04 11:11:28;;;;;;;4.75;4.35;;;;;;;23.09;31.75;101920.78;6101796;23;20023;-83
2023/05/04 11:13:55;;;;;;;6.13;4.53;;;;;;;23.19;31.61;101909.13;6102621;23;20106;-82
2023/05/04 11:16:23;;;;;;;6.57;4.63;;;;;;;23.45;31.83;101908.78;6101783;23;20026;-83
2023/05/04 11:18:50;;;;;;;6.05;4.32;;;;;;;23.62;31.20;101903.25;6103885;23;20015;-82
2023/05/04 11:21:26;;;;;;;4.95;4.50;;;;;;;23.54;31.59;101892.22;6105962;23;20015;-83
2023/05/04 11:23:57;;;;;;;4.70;4.30;;;;;;;23.56;31.71;101892.44;6076074;23;20022;-82
2023/05/04 11:26:24;;;;;;;;;;;;;;;23.79;33.18;101889.59;6101827;23;20021;-82
2023/05/04 11:28:51;;;;;;;5.25;4.20;;;;;;;23.83;31.40;101882.63;6102707;23;19925;-81
2023/05/04 11:31:19;;;;;;;5.90;4.25;;;;;;;23.79;30.81;101874.00;6076321;23;20079;-81